KFIG

Clearfield-Lawrence Airport

Clearfield, Pennsylvania, USA
METAR KFIG 161005Z AUTO 24014G22KT 10SM BKN028 BKN046 OVC095 M03/M08 A2991 RMK AO2 T10331078
Observed Flight Rules
Dec-16 @ 10:05 UTC (57 minutes ago) Marginal Visual Flight Rules
Wind Visibility Clouds
240° at 14 knots
 Gusting to 22 knots
10 miles
  • Broken at 2,800' AGL
  • Broken at 4,600' AGL
  • Overcast at 9,500' AGL
Temperatures Readings
Current -3°C / 27°F
Dewpoint -8°C / 18°F
Humidity 69%
Altimeter 29.91" Hg
Pressure 1013 hPa
Elevation 462
METAR KFIG 161005Z AUTO 24014G22KT 10SM BKN028 BKN046 OVC095 M03/M08 A2991 RMK AO2 T10331078
Observed Flight Rules
Dec-16 @ 10:05 UTC
(57 minutes ago)
MVFR
Wind Visibility
240° at 14 knots
 Gusting to 22 knots
10 miles
Clouds
  • Broken at 2,800' AGL
  • Broken at 4,600' AGL
  • Overcast at 9,500' AGL
Temperature Dewpoint
-3°C / 27°F -8°C / 18°F
Humidity Altimeter Pressure
69% 29.91" Hg 1013 hPa